createdAt,value
2023-02-14T00:02:28.491Z,40.13
2023-02-14T00:06:33.855Z,40.13
2023-02-14T00:10:35.006Z,40.47
2023-02-14T00:14:54.799Z,39.20
2023-02-14T00:19:02.616Z,39.87
2023-02-14T00:23:03.905Z,44.48
2023-02-14T00:27:05.020Z,42.87
2023-02-14T00:31:07.244Z,41.53
2023-02-14T00:35:09.301Z,39.30
2023-02-14T00:39:12.600Z,39.73
2023-02-14T00:43:13.810Z,39.20
2023-02-14T00:47:15.099Z,38.40
2023-02-14T00:51:17.920Z,41.73
2023-02-14T00:55:19.079Z,39.07
2023-02-14T00:59:20.637Z,39.03
2023-02-14T01:03:22.315Z,41.63
2023-02-14T01:07:23.374Z,40.23
2023-02-14T01:11:25.061Z,41.40
2023-02-14T01:15:26.105Z,41.03
2023-02-14T01:19:27.387Z,40.33
2023-02-14T01:23:28.368Z,42.77
2023-02-14T01:27:29.603Z,43.20
2023-02-14T01:31:32.392Z,45.87
2023-02-14T01:35:37.411Z,44.47
2023-02-14T01:39:38.885Z,42.50
2023-02-14T01:44:01.584Z,42.33
2023-02-14T01:48:02.840Z,45.67
2023-02-14T01:52:13.981Z,44.33
2023-02-14T01:56:19.840Z,42.57
2023-02-14T02:00:40.657Z,43.83
2023-02-14T02:04:45.000Z,41.63
2023-02-14T02:09:17.367Z,42.33
2023-02-14T02:13:20.736Z,41.53
2023-02-14T02:17:31.306Z,39.43
2023-02-14T02:22:01.072Z,35.67
2023-02-14T02:26:14.718Z,41.40
2023-02-14T02:30:41.134Z,42.93
2023-02-14T02:35:06.217Z,41.00
2023-02-14T02:39:23.198Z,44.57
2023-02-14T02:43:46.321Z,41.70
2023-02-14T02:48:12.185Z,40.13
2023-02-14T02:52:47.684Z,41.97
2023-02-14T02:56:52.924Z,45.10
2023-02-14T03:00:55.330Z,47.83
2023-02-14T03:05:00.162Z,47.13
2023-02-14T03:09:22.085Z,45.30
2023-02-14T03:13:39.592Z,49.97
2023-02-14T03:17:56.583Z,52.37
2023-02-14T03:22:07.510Z,50.17
2023-02-14T03:26:15.059Z,50.97
2023-02-14T03:30:23.129Z,49.97
2023-02-14T03:34:30.929Z,50.67
2023-02-14T03:38:47.862Z,39.00
2023-02-14T03:43:04.368Z,39.47
2023-02-14T03:47:09.225Z,39.23
2023-02-14T03:51:13.201Z,37.00
2023-02-14T03:55:17.582Z,35.73
2023-02-14T03:59:22.541Z,34.10
2023-02-14T04:03:26.316Z,39.10
2023-02-14T04:07:27.518Z,41.60
2023-02-14T04:11:28.506Z,42.50
2023-02-14T04:15:29.525Z,38.57
2023-02-14T04:19:30.677Z,34.10
2023-02-14T04:23:31.883Z,36.97
2023-02-14T04:27:32.874Z,37.07
2023-02-14T04:31:34.003Z,32.53
2023-02-14T04:35:35.157Z,39.13
2023-02-14T04:39:36.967Z,52.07
2023-02-14T04:43:37.928Z,56.37
2023-02-14T04:47:38.922Z,57.43
2023-02-14T04:51:40.729Z,57.47
2023-02-14T04:55:41.874Z,57.57
2023-02-14T04:59:43.030Z,59.43
2023-02-14T05:03:43.963Z,58.87
2023-02-14T05:07:46.992Z,58.77
2023-02-14T05:11:47.967Z,61.50
2023-02-14T05:15:48.942Z,59.83
2023-02-14T05:19:50.125Z,54.67
2023-02-14T05:23:51.070Z,53.73
2023-02-14T05:27:52.217Z,82.30
2023-02-14T05:31:53.345Z,63.33
2023-02-14T05:35:54.372Z,62.27
2023-02-14T05:39:55.499Z,58.80
2023-02-14T05:43:56.558Z,56.23
2023-02-14T05:47:57.531Z,58.17
2023-02-14T05:51:58.769Z,69.55
2023-02-14T05:55:59.946Z,59.47
2023-02-14T06:00:01.641Z,61.27
2023-02-14T06:04:02.665Z,58.63
2023-02-14T06:08:03.691Z,49.73
2023-02-14T06:12:05.220Z,52.20
2023-02-14T06:16:06.508Z,54.13
2023-02-14T06:20:09.381Z,47.90
2023-02-14T06:24:10.600Z,54.10
2023-02-14T06:28:11.742Z,52.83
2023-02-14T06:32:13.166Z,51.17
2023-02-14T06:36:14.591Z,49.20
2023-02-14T06:40:15.881Z,49.20
2023-02-14T06:44:17.462Z,45.97
2023-02-14T06:48:18.603Z,49.20
2023-02-14T06:52:20.746Z,48.07
2023-02-14T06:56:21.949Z,46.03
2023-02-14T07:00:23.241Z,42.77
2023-02-14T07:04:24.192Z,47.87
2023-02-14T07:08:26.320Z,43.60
2023-02-14T07:12:27.419Z,45.60
2023-02-14T07:16:28.725Z,45.23
2023-02-14T07:20:29.971Z,43.90
2023-02-14T07:24:30.963Z,44.40
2023-02-14T07:28:33.137Z,42.60
2023-02-14T07:32:34.636Z,38.67
2023-02-14T07:36:38.438Z,41.60
2023-02-14T07:40:39.708Z,36.70
2023-02-14T07:44:41.487Z,37.43
2023-02-14T07:48:42.899Z,33.40
2023-02-14T07:52:44.768Z,31.60
2023-02-14T07:56:45.763Z,33.00
2023-02-14T08:00:47.032Z,31.90
2023-02-14T08:04:48.316Z,31.37
2023-02-14T08:08:49.441Z,31.37
2023-02-14T08:12:59.688Z,44.40
2023-02-14T08:17:01.379Z,33.00
2023-02-14T08:21:03.751Z,33.43
2023-02-14T08:25:05.505Z,34.67
2023-02-14T08:29:06.923Z,41.73
2023-02-14T08:33:09.144Z,36.23
2023-02-14T08:37:10.250Z,41.40
2023-02-14T08:41:11.724Z,40.17
2023-02-14T08:45:15.285Z,45.50
2023-02-14T08:49:16.810Z,44.57
2023-02-14T08:53:18.223Z,47.30
2023-02-14T08:57:19.423Z,48.03
2023-02-14T09:01:20.700Z,46.23
2023-02-14T09:05:22.872Z,45.77
2023-02-14T09:09:24.212Z,42.47
2023-02-14T09:13:25.627Z,43.30
2023-02-14T09:17:27.239Z,44.40
2023-02-14T09:21:28.979Z,43.40
2023-02-14T09:25:29.912Z,42.83
2023-02-14T09:29:32.103Z,48.87
2023-02-14T09:33:52.298Z,48.93
2023-02-14T09:37:54.473Z,46.20
2023-02-14T09:42:11.349Z,41.07
2023-02-14T09:46:15.428Z,41.30
2023-02-14T09:50:23.158Z,41.27
2023-02-14T09:54:27.555Z,42.13
2023-02-14T09:58:48.118Z,38.73
2023-02-14T10:03:04.419Z,36.73
2023-02-14T10:07:14.158Z,43.30
2023-02-14T10:11:20.262Z,50.87
2023-02-14T10:15:27.897Z,47.07
2023-02-14T10:19:41.287Z,44.47
2023-02-14T10:23:49.229Z,43.60
2023-02-14T10:27:52.919Z,45.03
2023-02-14T10:32:03.339Z,41.33
2023-02-14T10:36:14.136Z,40.03
2023-02-14T10:40:38.950Z,43.20
2023-02-14T10:44:49.534Z,40.43
2023-02-14T10:49:00.677Z,42.33
2023-02-14T10:53:16.734Z,37.43
2023-02-14T10:57:40.341Z,39.10
2023-02-14T11:01:42.365Z,37.33
2023-02-14T11:05:47.057Z,34.97
2023-02-14T11:09:48.727Z,42.90
2023-02-14T11:13:50.430Z,37.13
2023-02-14T11:18:10.747Z,34.37
2023-02-14T11:22:15.858Z,35.60
2023-02-14T11:26:26.097Z,35.00
2023-02-14T11:30:40.393Z,35.17
2023-02-14T11:34:53.781Z,35.87
2023-02-14T11:39:04.454Z,33.50
2023-02-14T11:43:15.615Z,38.77
2023-02-14T11:47:20.096Z,36.53
2023-02-14T11:51:28.011Z,38.23
2023-02-14T11:55:34.886Z,32.97
2023-02-14T11:59:39.777Z,33.50
2023-02-14T12:03:47.094Z,29.93
2023-02-14T12:07:51.723Z,31.50
2023-02-14T12:12:03.093Z,33.17
2023-02-14T12:16:04.667Z,37.50
2023-02-14T12:20:15.878Z,37.50
2023-02-14T12:24:23.799Z,35.60
2023-02-14T12:28:37.999Z,34.27
2023-02-14T12:32:43.138Z,37.67
2023-02-14T12:37:03.490Z,36.60
2023-02-14T12:41:28.450Z,37.87
2023-02-14T12:46:07.214Z,36.57
2023-02-14T12:50:31.332Z,35.43
2023-02-14T12:54:54.917Z,38.53
2023-02-14T12:59:08.505Z,35.13
2023-02-14T13:03:34.955Z,35.27
2023-02-14T13:07:51.856Z,36.67
2023-02-14T13:11:57.170Z,33.67
2023-02-14T13:16:02.014Z,35.60
2023-02-14T13:20:13.133Z,34.77
2023-02-14T13:24:24.245Z,35.07
2023-02-14T13:28:27.308Z,36.33
2023-02-14T13:32:32.336Z,36.30
2023-02-14T13:36:35.226Z,40.43
2023-02-14T13:40:37.277Z,39.63
2023-02-14T13:44:45.417Z,34.27
2023-02-14T13:48:59.398Z,38.57
2023-02-14T13:53:00.905Z,33.77
2023-02-14T13:57:05.849Z,36.20
2023-02-14T14:01:31.487Z,34.03
2023-02-14T14:05:48.012Z,33.40
2023-02-14T14:09:53.061Z,33.13
2023-02-14T14:14:04.115Z,34.90
2023-02-14T14:18:18.517Z,34.27
2023-02-14T14:22:20.500Z,34.83
2023-02-14T14:26:31.525Z,40.83
2023-02-14T14:30:33.073Z,35.97
2023-02-14T14:34:34.184Z,35.63
2023-02-14T14:38:50.170Z,35.63
2023-02-14T14:42:52.842Z,39.50
2023-02-14T14:46:57.705Z,37.73
2023-02-14T14:51:00.733Z,41.03
2023-02-14T14:55:05.378Z,42.50
2023-02-14T14:59:38.587Z,41.50
2023-02-14T15:03:40.102Z,44.03
2023-02-14T15:07:41.502Z,43.43
2023-02-14T15:12:03.149Z,41.63
2023-02-14T15:16:04.996Z,44.57
2023-02-14T15:20:15.796Z,41.17
2023-02-14T15:24:18.992Z,38.43
2023-02-14T15:28:32.837Z,40.70
2023-02-14T15:32:35.721Z,39.83
2023-02-14T15:36:37.136Z,39.90
2023-02-14T15:40:40.077Z,43.50
2023-02-14T15:44:41.087Z,42.17
2023-02-14T15:48:42.693Z,37.93
2023-02-14T15:52:45.363Z,41.80
2023-02-14T15:56:50.517Z,41.70
2023-02-14T16:00:53.354Z,41.80
2023-02-14T16:04:57.225Z,41.83
2023-02-14T16:08:58.628Z,42.40
2023-02-14T16:13:15.424Z,47.63
2023-02-14T16:17:20.367Z,47.67
2023-02-14T16:21:26.237Z,45.93
2023-02-14T16:25:27.221Z,50.53
2023-02-14T16:29:28.345Z,50.43
2023-02-14T16:33:33.541Z,50.30
2023-02-14T16:37:35.506Z,51.37
2023-02-14T16:41:40.443Z,54.37
2023-02-14T16:45:43.466Z,47.30
2023-02-14T16:49:45.638Z,50.03
2023-02-14T16:53:47.608Z,51.00
2023-02-14T16:57:51.337Z,45.67
2023-02-14T17:01:53.463Z,49.53
2023-02-14T17:05:57.393Z,47.83
2023-02-14T17:10:03.196Z,49.57
2023-02-14T17:14:04.991Z,47.20
2023-02-14T17:18:09.791Z,45.47
2023-02-14T17:22:12.980Z,43.37
2023-02-14T17:26:14.136Z,45.47
2023-02-14T17:30:15.967Z,43.23
2023-02-14T17:34:18.996Z,43.77
2023-02-14T17:38:20.872Z,41.90
2023-02-14T17:42:21.952Z,39.73
2023-02-14T17:46:23.111Z,41.07
2023-02-14T17:50:24.572Z,38.07
2023-02-14T17:54:25.828Z,47.50
2023-02-14T17:58:27.186Z,50.63
2023-02-14T18:02:28.778Z,59.13
2023-02-14T18:06:31.186Z,54.93
2023-02-14T18:10:32.237Z,66.63
2023-02-14T18:14:34.327Z,60.80
2023-02-14T18:18:36.608Z,55.10
2023-02-14T18:22:37.846Z,54.93
2023-02-14T18:26:40.579Z,55.47
2023-02-14T18:30:42.261Z,53.20
2023-02-14T18:34:43.773Z,50.47
2023-02-14T18:38:46.876Z,48.20
2023-02-14T18:42:48.188Z,50.17
2023-02-14T18:46:49.339Z,49.87
2023-02-14T18:50:52.658Z,47.10
2023-02-14T18:54:53.972Z,58.80
2023-02-14T18:58:58.637Z,49.07
2023-02-14T19:03:00.740Z,47.87
2023-02-14T19:07:03.934Z,51.17
2023-02-14T19:11:18.130Z,47.97
2023-02-14T19:15:20.185Z,49.87
2023-02-14T19:19:23.111Z,54.90
2023-02-14T19:23:24.528Z,51.63
2023-02-14T19:27:26.025Z,52.83
2023-02-14T19:31:27.854Z,51.03
2023-02-14T19:35:29.558Z,52.13
2023-02-14T19:39:31.142Z,55.60
2023-02-14T19:43:32.529Z,63.60
2023-02-14T19:47:46.258Z,56.60
2023-02-14T19:51:37.109Z,54.43
2023-02-14T19:55:39.923Z,53.13
2023-02-14T19:59:41.302Z,53.80
2023-02-14T20:03:42.780Z,54.53
2023-02-14T20:07:44.277Z,54.97
2023-02-14T20:11:51.485Z,52.53
2023-02-14T20:15:52.824Z,50.50
2023-02-14T20:19:55.559Z,49.97
2023-02-14T20:24:01.646Z,49.63
2023-02-14T20:28:02.843Z,52.50
2023-02-14T20:32:05.593Z,51.37
2023-02-14T20:36:08.044Z,47.80
2023-02-14T20:40:12.375Z,53.13
2023-02-14T20:44:15.970Z,48.73
2023-02-14T20:48:17.345Z,46.93
2023-02-14T20:52:18.813Z,50.87
2023-02-14T20:56:22.838Z,47.93
2023-02-14T21:00:25.534Z,47.73
2023-02-14T21:04:27.565Z,47.20
2023-02-14T21:08:28.992Z,53.30
2023-02-14T21:12:30.212Z,50.80
2023-02-14T21:16:32.711Z,52.27
2023-02-14T21:20:35.377Z,46.97
2023-02-14T21:24:36.680Z,49.57
2023-02-14T21:28:38.055Z,49.27
2023-02-14T21:32:39.250Z,38.23
2023-02-14T21:36:40.604Z,46.50
2023-02-14T21:40:41.725Z,44.20
2023-02-14T21:45:01.484Z,41.97
2023-02-14T21:49:23.060Z,46.53
2023-02-14T21:53:24.721Z,43.00
2023-02-14T21:57:25.948Z,43.20
2023-02-14T22:01:30.385Z,48.67
2023-02-14T22:05:31.633Z,48.53
2023-02-14T22:09:32.894Z,49.83
2023-02-14T22:13:34.857Z,43.40
2023-02-14T22:17:37.445Z,42.40
2023-02-14T22:21:39.029Z,42.00
2023-02-14T22:25:40.194Z,44.07
2023-02-14T22:29:42.022Z,39.17
2023-02-14T22:33:44.898Z,44.53
2023-02-14T22:37:45.872Z,50.17
2023-02-14T22:41:46.935Z,42.33
2023-02-14T22:45:48.994Z,39.83
2023-02-14T22:49:50.264Z,41.77
2023-02-14T22:53:53.404Z,43.73
2023-02-14T22:57:54.349Z,39.10
2023-02-14T23:01:55.366Z,40.33
2023-02-14T23:05:57.121Z,39.03
2023-02-14T23:09:58.260Z,40.70
2023-02-14T23:14:18.188Z,44.07
2023-02-14T23:18:37.729Z,43.33
2023-02-14T23:22:40.117Z,42.60
2023-02-14T23:26:41.348Z,47.53
2023-02-14T23:30:42.483Z,45.23
2023-02-14T23:34:44.105Z,39.60
2023-02-14T23:38:45.243Z,38.80
2023-02-14T23:42:46.343Z,43.67
2023-02-14T23:46:48.908Z,43.27
2023-02-14T23:50:49.915Z,45.33
2023-02-14T23:54:50.863Z,45.00
2023-02-14T23:58:51.731Z,40.83
